Time;durP1;ratioP1;P1;durP2;ratioP2;P2;SDS_P1;SDS_P2;PMS_P1;PMS_P2;Temp;Humidity;BMP_temperature;BMP_pressure;BME280_temperature;BME280_humidity;BME280_pressure;Samples;Min_cycle;Max_cycle;Signal;HPM_P1;HPM_P2
2023/04/14 00:01:31;;;;;;;9.10;2.10;;;;;;;7.14;99.96;99428.52;110020;1280;22422;-62
2023/04/14 00:04:02;;;;;;;8.10;2.30;;;;;;;7.15;99.90;99428.17;109993;1272;22388;-62
2023/04/14 00:06:33;;;;;;;11.30;2.40;;;;;;;7.16;99.98;99424.94;109969;1270;22330;-61
2023/04/14 00:09:04;;;;;;;12.30;3.10;;;;;;;7.19;100.00;99421.91;110002;1267;22195;-62
2023/04/14 00:11:35;;;;;;;8.90;2.00;;;;;;;7.21;99.93;99417.55;109984;1270;22391;-62
2023/04/14 00:14:06;;;;;;;8.60;2.40;;;;;;;7.22;99.94;99412.17;109998;1272;23367;-62
2023/04/14 00:16:38;;;;;;;9.80;2.30;;;;;;;7.21;99.94;99414.98;110000;1280;22322;-63
2023/04/14 00:19:09;;;;;;;9.10;2.10;;;;;;;7.21;99.97;99410.14;110010;1272;22125;-62
2023/04/14 00:21:40;;;;;;;13.70;2.40;;;;;;;7.18;99.92;99413.06;109976;1273;22173;-62
2023/04/14 00:24:11;;;;;;;11.20;2.60;;;;;;;7.16;99.88;99408.36;109984;1274;22184;-62
2023/04/14 00:26:41;;;;;;;8.90;1.90;;;;;;;7.15;99.98;99404.06;109201;1267;22533;-62
2023/04/14 00:29:12;;;;;;;13.80;2.80;;;;;;;7.13;99.98;99399.67;106459;1274;24425;-61
2023/04/14 00:31:43;;;;;;;8.40;2.00;;;;;;;7.11;100.00;99401.00;109998;1264;22320;-62
2023/04/14 00:34:14;;;;;;;10.90;2.70;;;;;;;7.08;100.00;99402.82;109984;1267;22188;-62
2023/04/14 00:36:45;;;;;;;9.90;2.60;;;;;;;7.06;100.00;99400.02;109981;1267;22183;-62
2023/04/14 00:39:16;;;;;;;6.80;1.80;;;;;;;7.05;100.00;99397.92;110004;1267;22110;-62
2023/04/14 00:41:46;;;;;;;7.60;2.10;;;;;;;7.04;100.00;99395.12;110004;1274;22262;-62
2023/04/14 00:44:17;;;;;;;9.40;2.00;;;;;;;7.04;100.00;99394.01;110044;1264;22347;-62
2023/04/14 00:46:49;;;;;;;11.60;2.60;;;;;;;7.05;100.00;99392.86;110025;1273;22347;-64
2023/04/14 00:49:20;;;;;;;9.30;2.20;;;;;;;7.04;100.00;99394.41;110046;1265;22778;-62
2023/04/14 00:51:51;;;;;;;7.90;2.00;;;;;;;7.05;100.00;99394.59;110011;1273;22214;-62
2023/04/14 00:54:22;;;;;;;8.70;2.80;;;;;;;7.05;100.00;99390.55;110012;1269;22423;-62
2023/04/14 00:56:53;;;;;;;9.50;2.70;;;;;;;7.04;100.00;99387.86;110003;1266;22267;-60
2023/04/14 00:59:24;;;;;;;10.80;2.90;;;;;;;7.04;100.00;99388.61;110046;1274;22166;-61
2023/04/14 01:01:56;;;;;;;8.50;2.60;;;;;;;7.03;100.00;99390.31;109994;1265;22228;-62
2023/04/14 01:04:28;;;;;;;11.00;3.10;;;;;;;7.01;100.00;99390.67;109983;1268;22213;-61
2023/04/14 01:06:59;;;;;;;9.00;2.30;;;;;;;7.00;100.00;99390.48;109987;1276;23452;-63
2023/04/14 01:09:30;;;;;;;12.20;3.20;;;;;;;6.99;100.00;99387.52;109993;1273;22325;-62
2023/04/14 01:12:13;;;;;;;12.60;2.60;;;;;;;7.00;100.00;99386.91;109994;1273;22362;-61
2023/04/14 01:14:49;;;;;;;11.30;2.80;;;;;;;7.00;100.00;99389.13;110016;1267;22271;-62
2023/04/14 01:17:27;;;;;;;13.50;3.50;;;;;;;7.00;100.00;99390.25;110012;1265;22264;-62
2023/04/14 01:20:13;;;;;;;12.50;3.50;;;;;;;7.00;100.00;99392.71;109941;1273;22398;-62
2023/04/14 01:22:49;;;;;;;11.20;3.20;;;;;;;7.00;100.00;99388.64;109989;1272;22177;-62
2023/04/14 01:26:02;;;;;;;10.70;3.20;;;;;;;6.99;100.00;99387.27;110019;1274;23070;-63
2023/04/14 01:28:58;;;;;;;12.70;4.00;;;;;;;6.97;100.00;99383.67;110008;1273;22300;-62
2023/04/14 01:31:32;;;;;;;11.50;4.30;;;;;;;6.94;100.00;99389.31;109961;1278;22151;-62
2023/04/14 01:34:11;;;;;;;12.30;4.70;;;;;;;6.91;100.00;99395.22;109606;1272;22684;-61
2023/04/14 01:36:46;;;;;;;16.00;4.00;;;;;;;6.90;100.00;99403.61;110032;1274;22135;-62
2023/04/14 01:39:21;;;;;;;18.80;4.80;;;;;;;6.92;100.00;99402.08;110010;1273;22348;-62
2023/04/14 01:41:57;;;;;;;15.60;4.20;;;;;;;6.95;100.00;99397.23;109969;1273;22213;-62
2023/04/14 01:44:30;;;;;;;14.70;4.80;;;;;;;6.97;100.00;99395.08;109987;1269;22200;-62
2023/04/14 01:47:05;;;;;;;13.90;4.60;;;;;;;6.98;100.00;99390.96;110017;1265;23106;-62
2023/04/14 01:49:39;;;;;;;12.80;3.50;;;;;;;6.99;100.00;99388.38;110013;1280;22171;-62
2023/04/14 01:52:12;;;;;;;12.30;3.30;;;;;;;7.00;100.00;99386.52;109999;1267;23145;-61
2023/04/14 01:54:45;;;;;;;15.00;3.80;;;;;;;7.01;100.00;99384.27;109990;1270;23102;-61
2023/04/14 01:57:21;;;;;;;11.60;3.30;;;;;;;6.99;100.00;99377.13;110041;1267;22237;-61
2023/04/14 01:59:55;;;;;;;10.90;3.20;;;;;;;6.98;100.00;99372.81;107250;1274;24027;-61
2023/04/14 02:02:27;;;;;;;15.30;3.20;;;;;;;6.96;100.00;99369.23;110013;1274;22220;-62
2023/04/14 02:04:59;;;;;;;10.10;2.90;;;;;;;6.92;100.00;99368.14;110005;1271;22356;-62
2023/04/14 02:07:33;;;;;;;10.40;3.10;;;;;;;6.87;100.00;99367.44;110022;1280;22321;-62
2023/04/14 02:10:06;;;;;;;15.40;2.90;;;;;;;6.84;100.00;99369.26;110015;1269;22350;-62
2023/04/14 02:12:39;;;;;;;14.30;3.60;;;;;;;6.83;100.00;99371.05;110008;1267;22265;-60
2023/04/14 02:15:14;;;;;;;11.70;3.10;;;;;;;6.82;100.00;99367.55;109982;1269;22216;-61
2023/04/14 02:17:49;;;;;;;11.50;3.10;;;;;;;6.81;100.00;99363.39;110037;1267;22436;-63
2023/04/14 02:20:21;;;;;;;9.30;2.60;;;;;;;6.80;100.00;99358.09;110002;1274;22942;-62
2023/04/14 02:22:53;;;;;;;11.10;2.70;;;;;;;6.77;100.00;99362.76;110012;1280;22358;-62
2023/04/14 02:25:26;;;;;;;13.20;3.00;;;;;;;6.75;100.00;99363.41;110004;1280;22223;-62
2023/04/14 02:28:07;;;;;;;12.30;3.30;;;;;;;6.75;100.00;99365.88;109985;1274;22189;-62
2023/04/14 02:30:42;;;;;;;12.20;3.60;;;;;;;6.76;100.00;99365.59;110002;1274;22214;-62
2023/04/14 02:33:18;;;;;;;14.40;3.50;;;;;;;6.77;100.00;99357.44;110008;1277;22132;-61
2023/04/14 02:35:56;;;;;;;13.30;3.40;;;;;;;6.77;100.00;99359.73;109973;1273;22280;-62
2023/04/14 02:38:34;;;;;;;11.70;3.30;;;;;;;6.77;100.00;99369.80;109950;1269;22233;-62
2023/04/14 02:41:17;;;;;;;11.00;3.70;;;;;;;6.77;100.00;99366.73;109977;1271;22301;-62
2023/04/14 02:43:54;;;;;;;14.10;3.30;;;;;;;6.79;100.00;99369.79;109965;1280;22823;-62
2023/04/14 02:46:27;;;;;;;12.80;4.10;;;;;;;6.81;100.00;99372.45;109953;1270;22221;-62
2023/04/14 02:49:02;;;;;;;12.60;3.90;;;;;;;6.83;100.00;99370.13;110003;1274;22476;-61
2023/04/14 02:51:35;;;;;;;14.90;4.50;;;;;;;6.84;100.00;99358.60;109998;1268;22313;-62
2023/04/14 02:54:07;;;;;;;14.80;4.30;;;;;;;6.83;100.00;99359.09;109975;1269;22345;-61
2023/04/14 02:56:38;;;;;;;15.20;4.40;;;;;;;6.84;100.00;99357.30;109981;1274;22254;-62
2023/04/14 02:59:10;;;;;;;14.80;5.00;;;;;;;6.86;100.00;99352.08;109987;1273;22397;-61
2023/04/14 03:01:41;;;;;;;15.10;4.00;;;;;;;6.86;100.00;99352.99;110021;1280;22186;-62
2023/04/14 03:04:13;;;;;;;18.80;4.90;;;;;;;6.84;100.00;99355.32;109975;1270;22883;-62
2023/04/14 03:06:45;;;;;;;14.80;4.60;;;;;;;6.82;100.00;99348.07;109999;1277;22950;-62
2023/04/14 03:09:16;;;;;;;17.90;5.60;;;;;;;6.81;100.00;99351.77;110001;1273;23005;-66
2023/04/14 03:11:49;;;;;;;15.00;4.00;;;;;;;6.81;100.00;99350.27;109996;1269;22245;-62
2023/04/14 03:14:21;;;;;;;14.00;4.80;;;;;;;6.81;100.00;99344.21;109989;1273;22201;-62
2023/04/14 03:16:54;;;;;;;20.90;5.00;;;;;;;6.81;100.00;99342.56;109984;1273;22222;-63
2023/04/14 03:19:26;;;;;;;16.90;5.70;;;;;;;6.80;100.00;99345.31;110002;1280;22331;-61
2023/04/14 03:21:58;;;;;;;19.60;6.20;;;;;;;6.80;100.00;99347.84;109971;1267;23181;-63
2023/04/14 03:24:31;;;;;;;22.60;7.10;;;;;;;6.80;100.00;99345.31;110018;1274;22183;-62
2023/04/14 03:27:05;;;;;;;18.90;7.20;;;;;;;6.80;100.00;99342.54;109961;1274;22346;-63
2023/04/14 03:29:40;;;;;;;17.80;6.10;;;;;;;6.80;100.00;99339.61;109831;1267;22645;-62
2023/04/14 03:32:11;;;;;;;19.60;7.30;;;;;;;6.79;100.00;99331.87;106404;1265;25385;-62
2023/04/14 03:34:46;;;;;;;26.90;8.70;;;;;;;6.79;100.00;99333.38;106481;1280;25513;-62
2023/04/14 03:37:20;;;;;;;23.80;9.00;;;;;;;6.78;100.00;99326.96;110030;1276;22848;-61
2023/04/14 03:39:52;;;;;;;27.50;9.40;;;;;;;6.76;100.00;99328.95;109986;1273;22225;-62
2023/04/14 03:42:24;;;;;;;23.80;8.80;;;;;;;6.75;100.00;99330.13;110008;1269;22830;-62
2023/04/14 03:44:59;;;;;;;25.80;9.30;;;;;;;6.75;100.00;99333.30;109968;1273;22158;-61
2023/04/14 03:47:31;;;;;;;30.10;11.20;;;;;;;6.76;100.00;99334.98;109956;1274;24111;-62
2023/04/14 03:50:04;;;;;;;30.90;11.70;;;;;;;6.78;100.00;99338.82;109977;1271;23114;-62
2023/04/14 03:52:38;;;;;;;31.30;11.70;;;;;;;6.83;100.00;99341.92;109995;1269;22342;-62
2023/04/14 03:55:12;;;;;;;30.90;12.10;;;;;;;6.89;100.00;99335.03;110006;1274;22240;-63
2023/04/14 03:57:44;;;;;;;27.90;12.10;;;;;;;6.94;100.00;99332.52;110021;1267;22192;-63
2023/04/14 04:00:18;;;;;;;37.50;15.10;;;;;;;6.99;100.00;99337.19;109996;1274;22155;-56
2023/04/14 04:02:50;;;;;;;36.60;14.20;;;;;;;7.02;100.00;99334.70;110031;1274;22233;-57
2023/04/14 04:05:22;;;;;;;37.80;16.70;;;;;;;7.06;100.00;99328.19;110024;1269;22155;-57
2023/04/14 04:07:53;;;;;;;39.80;15.10;;;;;;;7.08;100.00;99329.15;109973;1274;22369;-60
2023/04/14 04:10:25;;;;;;;40.80;16.40;;;;;;;7.11;100.00;99322.27;110037;1280;22248;-57
2023/04/14 04:12:57;;;;;;;36.90;15.60;;;;;;;7.12;100.00;99321.73;110046;1274;22196;-57
2023/04/14 04:15:31;;;;;;;39.60;16.40;;;;;;;7.12;100.00;99323.16;107980;1277;24220;-55
2023/04/14 04:18:04;;;;;;;39.30;18.00;;;;;;;7.14;100.00;99323.51;110018;1270;22181;-57
2023/04/14 04:20:37;;;;;;;41.50;17.60;;;;;;;7.16;100.00;99319.65;110047;1266;22389;-56
2023/04/14 04:23:09;;;;;;;38.40;17.10;;;;;;;7.19;100.00;99318.85;110029;1271;22933;-57
2023/04/14 04:25:42;;;;;;;36.70;16.80;;;;;;;7.22;100.00;99315.25;110067;1265;22191;-56
2023/04/14 04:28:13;;;;;;;40.80;18.50;;;;;;;7.26;100.00;99317.41;109996;1274;22228;-54
2023/04/14 04:30:46;;;;;;;35.50;16.90;;;;;;;7.28;100.00;99320.81;110004;1269;22150;-61
2023/04/14 04:33:17;;;;;;;41.20;17.90;;;;;;;7.27;100.00;99320.80;109989;1267;22214;-60
2023/04/14 04:35:50;;;;;;;36.00;17.70;;;;;;;7.30;100.00;99321.31;109985;1267;22278;-61
2023/04/14 04:38:20;;;;;;;38.00;16.70;;;;;;;7.31;100.00;99318.17;109988;1273;22985;-61
2023/04/14 04:40:51;;;;;;;41.80;18.30;;;;;;;7.31;100.00;99316.32;109973;1277;22214;-62
2023/04/14 04:43:22;;;;;;;39.20;17.10;;;;;;;7.30;100.00;99312.88;110013;1274;23653;-61
2023/04/14 04:46:11;;;;;;;43.40;18.40;;;;;;;7.32;100.00;99306.80;110056;1273;22925;-62
2023/04/14 04:48:42;;;;;;;42.80;19.20;;;;;;;7.33;100.00;99304.70;110040;1267;23461;-60
2023/04/14 04:51:13;;;;;;;39.20;18.90;;;;;;;7.34;100.00;99308.23;110060;1273;22176;-61
2023/04/14 04:53:44;;;;;;;43.50;20.50;;;;;;;7.35;100.00;99305.33;110022;1276;22352;-60
2023/04/14 04:56:15;;;;;;;49.30;22.80;;;;;;;7.37;100.00;99309.21;110044;1273;23094;-61
2023/04/14 04:58:47;;;;;;;46.70;21.40;;;;;;;7.39;100.00;99308.78;110017;1276;22385;-61
2023/04/14 05:01:18;;;;;;;44.50;21.00;;;;;;;7.41;100.00;99305.48;110023;1273;22913;-61
2023/04/14 05:03:49;;;;;;;42.00;19.80;;;;;;;7.41;100.00;99308.98;110030;1267;22200;-61
2023/04/14 05:06:20;;;;;;;41.00;17.20;;;;;;;7.40;100.00;99308.09;110057;1271;22205;-61
2023/04/14 05:08:53;;;;;;;40.50;19.00;;;;;;;7.38;100.00;99306.45;110057;1271;22215;-61
2023/04/14 05:11:25;;;;;;;37.00;16.50;;;;;;;7.35;100.00;99305.34;110028;1272;22335;-60
2023/04/14 05:13:57;;;;;;;39.80;17.70;;;;;;;7.32;100.00;99305.73;110055;1271;23699;-59
2023/04/14 05:16:28;;;;;;;34.20;16.50;;;;;;;7.30;100.00;99304.59;110023;1277;22269;-59
2023/04/14 05:18:59;;;;;;;45.30;19.10;;;;;;;7.30;100.00;99305.56;110053;1277;22984;-59
2023/04/14 05:21:31;;;;;;;40.40;18.60;;;;;;;7.32;100.00;99300.73;110033;1273;22335;-59
2023/04/14 05:24:02;;;;;;;35.80;16.90;;;;;;;7.35;100.00;99298.36;110033;1273;22274;-60
2023/04/14 05:26:33;;;;;;;37.30;16.60;;;;;;;7.39;100.00;99301.16;110049;1273;22368;-60
2023/04/14 05:29:04;;;;;;;42.00;18.30;;;;;;;7.42;100.00;99301.92;109993;1271;22348;-60
2023/04/14 05:31:35;;;;;;;37.60;17.00;;;;;;;7.46;100.00;99307.98;110031;1278;22266;-60
2023/04/14 05:34:06;;;;;;;43.00;19.00;;;;;;;7.48;100.00;99312.41;110029;1273;22186;-60
2023/04/14 05:36:37;;;;;;;42.60;19.30;;;;;;;7.49;100.00;99313.48;110021;1277;22918;-60
2023/04/14 05:39:08;;;;;;;39.90;17.60;;;;;;;7.48;100.00;99310.84;110024;1277;22312;-62
2023/04/14 05:41:39;;;;;;;46.20;19.90;;;;;;;7.51;100.00;99303.77;110035;1273;22400;-59
2023/04/14 05:44:10;;;;;;;44.30;18.80;;;;;;;7.51;100.00;99305.34;110019;1274;23277;-60
2023/04/14 05:46:41;;;;;;;43.00;19.90;;;;;;;7.49;100.00;99301.88;110015;1277;23130;-59
2023/04/14 05:49:12;;;;;;;39.60;19.20;;;;;;;7.47;100.00;99299.16;110029;1270;22632;-60
2023/04/14 05:51:43;;;;;;;41.20;18.80;;;;;;;7.45;100.00;99301.92;109983;1274;22322;-60
2023/04/14 05:54:14;;;;;;;37.10;18.30;;;;;;;7.45;100.00;99300.14;110047;1277;23023;-60
2023/04/14 05:56:45;;;;;;;42.30;18.60;;;;;;;7.45;100.00;99300.30;110050;1276;22286;-59
2023/04/14 05:59:16;;;;;;;44.00;19.70;;;;;;;7.47;100.00;99296.39;110052;1273;23136;-60
2023/04/14 06:01:47;;;;;;;40.90;17.60;;;;;;;7.49;100.00;99290.16;110069;1279;22362;-60
2023/04/14 06:04:18;;;;;;;39.00;18.20;;;;;;;7.51;100.00;99288.89;110067;1277;22889;-60
2023/04/14 06:06:49;;;;;;;39.80;19.00;;;;;;;7.54;100.00;99283.48;110049;1274;22208;-60
2023/04/14 06:09:20;;;;;;;41.80;18.40;;;;;;;7.56;100.00;99283.62;110025;1276;22369;-60
2023/04/14 06:11:51;;;;;;;41.20;19.60;;;;;;;7.57;100.00;99276.82;107791;1270;24308;-57
2023/04/14 06:14:22;;;;;;;36.10;16.60;;;;;;;7.59;100.00;99268.26;105954;1280;25422;-59
2023/04/14 06:16:52;;;;;;;38.20;17.30;;;;;;;7.56;100.00;99258.86;105989;1280;22538;-59
2023/04/14 06:19:24;;;;;;;37.80;18.80;;;;;;;7.54;100.00;99252.52;105980;1280;22529;-59
2023/04/14 06:21:54;;;;;;;41.00;19.00;;;;;;;7.53;100.00;99249.67;106156;1280;24113;-58
2023/04/14 06:24:25;;;;;;;50.20;22.00;;;;;;;7.51;100.00;99246.02;106107;1274;24252;-59
2023/04/14 06:26:57;;;;;;;63.30;29.90;;;;;;;7.48;100.00;99239.25;106139;1280;22523;-57
2023/04/14 06:29:28;;;;;;;41.10;19.20;;;;;;;7.47;100.00;99233.08;106079;1277;22655;-59
2023/04/14 06:31:59;;;;;;;42.00;19.90;;;;;;;7.45;100.00;99226.19;105945;1270;22652;-59
2023/04/14 06:34:30;;;;;;;38.60;17.10;;;;;;;7.44;100.00;99229.45;109998;1280;22933;-60
2023/04/14 06:37:01;;;;;;;40.80;19.00;;;;;;;7.43;100.00;99227.72;109988;1280;22973;-59
2023/04/14 06:39:32;;;;;;;39.60;19.20;;;;;;;7.45;100.00;99230.08;110002;1277;22149;-60
2023/04/14 06:42:03;;;;;;;37.70;18.40;;;;;;;7.47;100.00;99223.29;110025;1275;22213;-60
2023/04/14 06:44:34;;;;;;;37.60;17.20;;;;;;;7.50;100.00;99224.94;109998;1280;23246;-60
2023/04/14 06:47:05;;;;;;;41.90;17.60;;;;;;;7.53;100.00;99220.15;109973;1271;22260;-59
2023/04/14 06:49:37;;;;;;;37.50;16.70;;;;;;;7.58;100.00;99220.02;109992;1280;22323;-60
2023/04/14 06:52:08;;;;;;;36.50;17.00;;;;;;;7.61;100.00;99218.58;109976;1277;22214;-60
2023/04/14 06:54:39;;;;;;;37.60;17.10;;;;;;;7.64;100.00;99214.90;109984;1276;23130;-60
2023/04/14 06:57:10;;;;;;;37.20;15.80;;;;;;;7.69;100.00;99209.27;109961;1271;22978;-61
2023/04/14 06:59:41;;;;;;;37.10;17.30;;;;;;;7.72;100.00;99203.65;109996;1277;22184;-62
2023/04/14 07:02:12;;;;;;;36.20;15.20;;;;;;;7.75;100.00;99203.73;109990;1273;22148;-61
2023/04/14 07:04:43;;;;;;;33.30;15.50;;;;;;;7.76;100.00;99207.23;110007;1274;22201;-61
2023/04/14 07:07:15;;;;;;;32.90;15.30;;;;;;;7.77;100.00;99209.08;109983;1277;22196;-61
2023/04/14 07:09:46;;;;;;;36.50;17.50;;;;;;;7.79;100.00;99218.20;109977;1273;22172;-61
2023/04/14 07:12:18;;;;;;;39.60;18.00;;;;;;;7.82;100.00;99220.35;109992;1276;22150;-62
2023/04/14 07:14:51;;;;;;;39.50;18.50;;;;;;;7.85;100.00;99222.82;110004;1274;22151;-61
2023/04/14 07:17:22;;;;;;;40.70;18.20;;;;;;;7.89;100.00;99221.45;110000;1277;22204;-61
2023/04/14 07:19:53;;;;;;;43.10;18.40;;;;;;;7.91;100.00;99223.45;109984;1274;22201;-63
2023/04/14 07:22:24;;;;;;;37.60;18.40;;;;;;;7.91;100.00;99219.46;109965;1280;23040;-61
2023/04/14 07:24:55;;;;;;;38.10;17.50;;;;;;;7.93;100.00;99223.48;109951;1274;22146;-61
2023/04/14 07:27:27;;;;;;;40.90;18.70;;;;;;;7.95;100.00;99219.62;109972;1277;22325;-61
2023/04/14 07:29:58;;;;;;;41.30;18.80;;;;;;;7.98;100.00;99220.10;110020;1276;22647;-61
2023/04/14 07:32:29;;;;;;;40.40;18.50;;;;;;;8.01;100.00;99219.18;109983;1275;22186;-61
2023/04/14 07:35:01;;;;;;;39.00;17.30;;;;;;;8.03;100.00;99218.66;110002;1267;22245;-61
2023/04/14 07:37:31;;;;;;;39.90;17.30;;;;;;;8.04;100.00;99215.07;109967;1280;22388;-61
2023/04/14 07:40:02;;;;;;;39.50;17.60;;;;;;;8.05;100.00;99218.07;109981;1274;22198;-61
2023/04/14 07:42:33;;;;;;;44.20;19.10;;;;;;;8.07;100.00;99212.48;109972;1277;22179;-61
2023/04/14 07:45:05;;;;;;;41.60;17.30;;;;;;;8.09;100.00;99212.45;109977;1274;22221;-62
2023/04/14 07:47:36;;;;;;;36.00;16.10;;;;;;;8.09;100.00;99211.25;109989;1273;22326;-61
2023/04/14 07:50:08;;;;;;;35.40;17.40;;;;;;;8.09;100.00;99206.23;109984;1265;23252;-62
2023/04/14 07:52:42;;;;;;;46.10;20.10;;;;;;;8.09;100.00;99203.77;109993;1280;22351;-61
2023/04/14 07:55:13;;;;;;;40.90;18.60;;;;;;;8.11;100.00;99206.48;109993;1277;22217;-61
2023/04/14 07:57:43;;;;;;;39.50;19.70;;;;;;;8.13;100.00;99207.88;109992;1272;22172;-61
2023/04/14 08:00:16;;;;;;;41.30;19.90;;;;;;;8.16;100.00;99213.67;109962;1277;22188;-62
2023/04/14 08:02:47;;;;;;;42.70;18.00;;;;;;;8.20;100.00;99216.73;109977;1277;22165;-61
2023/04/14 08:05:18;;;;;;;46.60;22.00;;;;;;;8.20;100.00;99215.48;109992;1274;22651;-61
2023/04/14 08:07:49;;;;;;;46.80;21.80;;;;;;;8.20;100.00;99213.30;109988;1280;22139;-62
2023/04/14 08:10:20;;;;;;;50.10;22.10;;;;;;;8.21;100.00;99215.23;109964;1277;22189;-61
2023/04/14 08:12:51;;;;;;;44.70;21.60;;;;;;;8.24;100.00;99217.05;109982;1277;23006;-62
2023/04/14 08:15:22;;;;;;;45.70;22.30;;;;;;;8.27;100.00;99217.35;110008;1269;22160;-61
2023/04/14 08:17:53;;;;;;;45.20;23.20;;;;;;;8.31;100.00;99219.74;110005;1273;22730;-62
2023/04/14 08:20:24;;;;;;;47.30;22.00;;;;;;;8.34;100.00;99220.06;109982;1277;22675;-61
2023/04/14 08:22:56;;;;;;;50.00;24.30;;;;;;;8.37;100.00;99216.82;109969;1280;22858;-62
2023/04/14 08:25:27;;;;;;;45.80;22.20;;;;;;;8.42;100.00;99217.08;109978;1274;22204;-60
2023/04/14 08:27:58;;;;;;;47.20;22.50;;;;;;;8.47;100.00;99218.45;109967;1280;22987;-61
2023/04/14 08:30:29;;;;;;;48.70;24.40;;;;;;;8.49;100.00;99214.06;110011;1277;22192;-61
2023/04/14 08:33:00;;;;;;;47.70;22.10;;;;;;;8.50;100.00;99212.21;109994;1273;23079;-66
2023/04/14 08:35:31;;;;;;;50.70;24.50;;;;;;;8.51;100.00;99211.45;109989;1276;22340;-62
2023/04/14 08:38:02;;;;;;;46.40;22.40;;;;;;;8.53;100.00;99212.85;109976;1273;22306;-61
2023/04/14 08:40:38;;;;;;;54.10;25.20;;;;;;;8.53;100.00;99214.97;109995;1280;23176;-61
2023/04/14 08:43:10;;;;;;;49.50;24.10;;;;;;;8.54;100.00;99211.65;109960;1278;22173;-61
2023/04/14 08:45:41;;;;;;;48.60;23.40;;;;;;;8.58;100.00;99211.94;109997;1276;23011;-61
2023/04/14 08:48:15;;;;;;;52.90;26.50;;;;;;;8.58;100.00;99214.47;109954;1279;22147;-62
2023/04/14 08:50:56;;;;;;;50.50;22.70;;;;;;;8.59;100.00;99214.53;110012;1280;22215;-62
2023/04/14 08:53:28;;;;;;;50.80;24.40;;;;;;;8.61;100.00;99207.83;110010;1273;22227;-62
2023/04/14 08:56:02;;;;;;;46.70;22.70;;;;;;;8.63;100.00;99208.84;109985;1274;23045;-62
2023/04/14 08:58:34;;;;;;;49.80;23.50;;;;;;;8.64;100.00;99201.77;110018;1274;23175;-61
2023/04/14 09:01:05;;;;;;;48.80;23.60;;;;;;;8.66;100.00;99203.58;110027;1273;22287;-61
2023/04/14 09:03:37;;;;;;;48.80;23.90;;;;;;;8.68;100.00;99203.75;109981;1269;22157;-61
2023/04/14 09:06:09;;;;;;;50.90;24.70;;;;;;;8.70;100.00;99201.55;109985;1273;22917;-61
2023/04/14 09:08:40;;;;;;;48.60;23.70;;;;;;;8.72;100.00;99199.44;110015;1277;23310;-61
2023/04/14 09:11:11;;;;;;;51.10;25.50;;;;;;;8.74;100.00;99199.75;109992;1273;22162;-61
2023/04/14 09:13:44;;;;;;;57.20;26.00;;;;;;;8.78;100.00;99196.70;110005;1274;23088;-61
2023/04/14 09:16:16;;;;;;;50.20;26.50;;;;;;;8.80;100.00;99194.75;109972;1277;22197;-62
2023/04/14 09:18:47;;;;;;;52.80;25.30;;;;;;;8.85;100.00;99199.81;110011;1277;22204;-61
2023/04/14 09:21:18;;;;;;;46.50;24.20;;;;;;;8.89;100.00;99193.88;109998;1269;22173;-62
2023/04/14 09:23:50;;;;;;;50.90;24.90;;;;;;;8.92;100.00;99187.63;109990;1277;22171;-61
2023/04/14 09:26:21;;;;;;;54.40;25.60;;;;;;;8.96;100.00;99187.05;109966;1273;22880;-61
2023/04/14 09:28:52;;;;;;;53.50;26.20;;;;;;;9.00;100.00;99183.69;109979;1277;22523;-61
2023/04/14 09:31:23;;;;;;;50.30;24.90;;;;;;;9.05;100.00;99183.31;110017;1280;22141;-62
2023/04/14 09:33:54;;;;;;;58.80;28.40;;;;;;;9.09;100.00;99176.33;109991;1276;22187;-62
2023/04/14 09:36:27;;;;;;;57.80;28.90;;;;;;;9.19;100.00;99180.20;109985;1273;22183;-61
2023/04/14 09:38:59;;;;;;;54.90;26.70;;;;;;;9.26;100.00;99181.71;109974;1276;22249;-61
2023/04/14 09:41:31;;;;;;;56.40;27.10;;;;;;;9.31;100.00;99187.67;109983;1273;22405;-62
2023/04/14 09:44:09;;;;;;;59.60;27.50;;;;;;;9.36;100.00;99180.58;109999;1273;22429;-62
2023/04/14 09:47:01;;;;;;;55.30;27.00;;;;;;;9.40;100.00;99181.71;110001;1280;22118;-62
2023/04/14 09:49:33;;;;;;;59.60;28.50;;;;;;;9.47;100.00;99185.45;109994;1280;22193;-62
2023/04/14 09:52:08;;;;;;;52.70;27.90;;;;;;;9.56;100.00;99183.52;109966;1270;22193;-62
2023/04/14 09:54:41;;;;;;;59.00;29.40;;;;;;;9.65;100.00;99188.20;110002;1273;22986;-62
2023/04/14 09:57:14;;;;;;;58.20;28.40;;;;;;;9.73;100.00;99182.31;110011;1277;22863;-62
2023/04/14 09:59:48;;;;;;;57.20;30.10;;;;;;;9.83;100.00;99180.29;110003;1273;22314;-61
2023/04/14 10:02:19;;;;;;;64.20;33.40;;;;;;;9.93;100.00;99182.30;109965;1274;22202;-62
2023/04/14 10:05:10;;;;;;;64.30;31.30;;;;;;;9.99;100.00;99183.00;110009;1280;22167;-62
2023/04/14 10:07:43;;;;;;;62.80;32.10;;;;;;;10.04;100.00;99178.10;109995;1280;22250;-62
2023/04/14 10:10:16;;;;;;;64.90;32.60;;;;;;;10.12;100.00;99176.23;109988;1280;22199;-62
2023/04/14 10:12:48;;;;;;;70.60;36.30;;;;;;;10.22;100.00;99172.82;109978;1276;22195;-62
2023/04/14 10:15:19;;;;;;;73.40;38.20;;;;;;;10.36;100.00;99169.11;109973;1273;22336;-62
2023/04/14 10:17:50;;;;;;;61.50;32.20;;;;;;;10.50;100.00;99166.61;110018;1267;22185;-62
2023/04/14 10:20:22;;;;;;;70.40;36.30;;;;;;;10.60;100.00;99167.08;110012;1272;22179;-62
2023/04/14 10:22:55;;;;;;;65.00;33.40;;;;;;;10.66;100.00;99163.33;109963;1274;22217;-62
2023/04/14 10:25:27;;;;;;;67.60;35.20;;;;;;;10.77;100.00;99159.54;110014;1280;22197;-61
2023/04/14 10:27:58;;;;;;;69.20;35.80;;;;;;;10.88;100.00;99160.98;110016;1273;22892;-62
2023/04/14 10:30:30;;;;;;;63.90;34.00;;;;;;;10.96;100.00;99153.82;109974;1274;22164;-61
2023/04/14 10:33:01;;;;;;;68.80;36.90;;;;;;;11.05;100.00;99147.27;109961;1280;22162;-62
2023/04/14 10:35:40;;;;;;;70.70;36.70;;;;;;;11.14;100.00;99143.86;110000;1276;23198;-61
2023/04/14 10:38:11;;;;;;;68.70;35.20;;;;;;;11.20;99.95;99143.09;110019;1273;22878;-61
2023/04/14 10:40:51;;;;;;;68.80;36.50;;;;;;;11.26;100.00;99152.13;110002;1280;22156;-61
2023/04/14 10:43:27;;;;;;;66.80;36.80;;;;;;;11.33;100.00;99148.31;110003;1273;23445;-61
2023/04/14 10:45:59;;;;;;;69.90;36.70;;;;;;;11.39;99.66;99145.55;109986;1276;22525;-61
2023/04/14 10:48:34;;;;;;;70.50;39.20;;;;;;;11.42;99.57;99146.61;109992;1267;22167;-61
2023/04/14 10:51:08;;;;;;;77.60;39.60;;;;;;;11.47;99.35;99147.11;109999;1276;22171;-61
2023/04/14 10:53:44;;;;;;;68.90;36.40;;;;;;;11.52;99.30;99145.46;109988;1273;22183;-61
2023/04/14 10:56:15;;;;;;;65.70;35.60;;;;;;;11.55;99.09;99143.94;110016;1272;22157;-61
2023/04/14 10:58:56;;;;;;;63.50;37.20;;;;;;;11.59;99.24;99142.14;110015;1273;22211;-61
2023/04/14 11:01:26;;;;;;;;;;;;;;;11.64;98.92;99135.94;109990;1267;22346;-61
2023/04/14 11:03:57;;;;;;;65.40;35.20;;;;;;;11.66;98.69;99135.84;109987;1273;22170;-61
2023/04/14 11:06:57;;;;;;;75.50;36.60;;;;;;;11.69;98.62;99129.84;109998;1276;22199;-61
2023/04/14 11:09:36;;;;;;;63.40;33.80;;;;;;;11.76;98.93;99126.81;110008;1276;22213;-61
2023/04/14 11:12:28;;;;;;;63.40;35.60;;;;;;;11.78;98.22;99121.07;109992;1276;22269;-61
2023/04/14 11:15:04;;;;;;;64.20;33.90;;;;;;;11.77;97.93;99119.85;109969;1272;22950;-61
2023/04/14 11:17:39;;;;;;;69.40;38.30;;;;;;;11.79;98.08;99114.21;110020;1273;22861;-61
2023/04/14 11:20:17;;;;;;;66.00;37.00;;;;;;;11.83;98.00;99111.80;109986;1273;22165;-61
2023/04/14 11:22:50;;;;;;;68.40;35.60;;;;;;;11.86;97.63;99107.81;109993;1280;22177;-61
2023/04/14 11:25:21;;;;;;;65.10;35.30;;;;;;;11.90;97.47;99099.46;109988;1273;22184;-61
2023/04/14 11:27:52;;;;;;;67.90;36.60;;;;;;;11.97;98.10;99103.09;109982;1276;22881;-61
2023/04/14 11:30:23;;;;;;;63.50;35.60;;;;;;;12.05;97.83;99103.02;109987;1276;22200;-61
2023/04/14 11:32:56;;;;;;;68.00;35.10;;;;;;;12.11;97.50;99101.13;109959;1267;22165;-61
2023/04/14 11:35:30;;;;;;;64.20;34.60;;;;;;;12.19;97.29;99100.02;110003;1280;22198;-61
2023/04/14 11:38:01;;;;;;;67.30;36.20;;;;;;;12.23;96.31;99096.48;109976;1273;22962;-61